Time;durP1;ratioP1;P1;durP2;ratioP2;P2;SDS_P1;SDS_P2;PMS_P1;PMS_P2;Temp;Humidity;BMP_temperature;BMP_pressure;BME280_temperature;BME280_humidity;BME280_pressure;Samples;Min_cycle;Max_cycle;Signal;HPM_P1;HPM_P2
2021/04/15 00:00:47;;;;;;;4.77;2.47;;;;;;;0.95;59.33;102606.34;5079252;28;20646;-72
2021/04/15 00:03:17;;;;;;;0.60;0.60;;;;;;;0.96;58.74;102601.94;5072496;28;20225;-70
2021/04/15 00:05:45;;;;;;;1.17;1.00;;;;;;;0.93;58.90;102613.41;5078843;28;20329;-72
2021/04/15 00:08:15;;;;;;;0.40;0.40;;;;;;;0.90;58.92;102608.06;5084350;28;20397;-71
2021/04/15 00:10:44;;;;;;;0.63;0.63;;;;;;;0.86;58.52;102609.84;5084766;28;20247;-72
2021/04/15 00:13:18;;;;;;;1.03;0.60;;;;;;;0.78;58.76;102597.47;5085083;28;20202;-71
2021/04/15 00:15:45;;;;;;;4.70;0.30;;;;;;;0.78;59.07;102608.06;5089785;28;20206;-71
2021/04/15 00:18:13;;;;;;;0.37;0.37;;;;;;;0.62;58.96;102596.56;5089840;28;20273;-70
2021/04/15 00:20:40;;;;;;;0.97;0.40;;;;;;;0.74;59.29;102611.56;5082844;28;20212;-72
2021/04/15 00:23:07;;;;;;;0.40;0.40;;;;;;;0.69;59.46;102601.00;5079994;28;20202;-71
2021/04/15 00:25:35;;;;;;;3.40;0.50;;;;;;;0.58;61.47;102624.72;5088673;28;20230;-71
2021/04/15 00:28:02;;;;;;;0.37;0.37;;;;;;;0.47;60.75;102623.81;5079775;28;20205;-73
2021/04/15 00:30:31;;;;;;;0.80;0.80;;;;;;;0.56;60.93;102617.66;5073693;28;20954;-71
2021/04/15 00:32:58;;;;;;;1.13;1.03;;;;;;;0.60;61.14;102614.16;5073552;28;20610;-71
2021/04/15 00:35:26;;;;;;;0.33;0.30;;;;;;;0.59;60.57;102622.97;5083230;28;20564;-72
2021/04/15 00:37:53;;;;;;;0.10;0.10;;;;;;;0.57;60.22;102614.16;5070371;28;20689;-71
2021/04/15 00:40:22;;;;;;;0.20;0.13;;;;;;;0.57;60.23;102616.78;5078382;28;20224;-71
2021/04/15 00:42:50;;;;;;;3.77;0.53;;;;;;;0.55;59.95;102615.91;5088478;28;20202;-71
2021/04/15 00:45:20;;;;;;;0.20;0.20;;;;;;;0.52;60.20;102614.13;5075305;28;20232;-70
2021/04/15 00:47:55;;;;;;;1.50;0.30;;;;;;;0.51;60.60;102615.00;5073905;28;20221;-71
2021/04/15 00:50:27;;;;;;;0.60;0.23;;;;;;;0.32;60.22;102583.25;5073233;28;20212;-70
2021/04/15 00:52:58;;;;;;;0.60;0.33;;;;;;;0.53;60.31;102615.03;5079553;28;20194;-71
2021/04/15 00:55:29;;;;;;;0.13;0.13;;;;;;;0.52;60.54;102624.72;5087718;28;20668;-72
2021/04/15 00:57:57;;;;;;;0.33;0.33;;;;;;;0.50;60.02;102633.50;5088613;28;20658;-72
2021/04/15 01:00:28;;;;;;;0.33;0.33;;;;;;;0.27;60.14;102599.94;5077803;28;20257;-71
2021/04/15 01:02:58;;;;;;;0.20;0.20;;;;;;;0.50;61.19;102637.03;5082849;28;20602;-71
2021/04/15 01:05:29;;;;;;;1.23;0.40;;;;;;;0.40;61.79;102634.34;5072804;28;20217;-71
2021/04/15 01:07:57;;;;;;;0.20;0.20;;;;;;;0.46;61.07;102642.31;5074844;28;20688;-71
2021/04/15 01:10:26;;;;;;;1.50;0.50;;;;;;;0.47;61.31;102650.25;5075826;28;20232;-71
2021/04/15 01:13:12;;;;;;;0.40;0.40;;;;;;;0.47;60.97;102647.59;5069787;28;20210;-71
2021/04/15 01:16:01;;;;;;;0.40;0.30;;;;;;;0.39;61.19;102644.03;5087080;28;20263;-72
2021/04/15 01:18:37;;;;;;;0.10;0.10;;;;;;;0.49;62.16;102643.19;5083751;28;20221;-72
2021/04/15 01:21:16;;;;;;;0.83;0.33;;;;;;;0.56;62.35;102649.38;5086932;28;20209;-70
2021/04/15 01:23:53;;;;;;;0.17;0.17;;;;;;;0.18;63.47;102650.09;5084656;28;20203;-70
2021/04/15 01:27:05;;;;;;;0.80;0.47;;;;;;;0.25;62.80;102656.28;5068006;28;20331;-69
2021/04/15 01:29:43;;;;;;;0.27;0.27;;;;;;;0.24;62.82;102636.03;5075545;28;20234;-70
2021/04/15 01:32:19;;;;;;;0.47;0.33;;;;;;;0.31;63.34;102653.69;5086670;28;20769;-71
2021/04/15 01:34:51;;;;;;;0.33;0.30;;;;;;;0.23;63.30;102651.00;5074475;28;20201;-71
2021/04/15 01:37:30;;;;;;;0.63;0.63;;;;;;;0.25;63.11;102646.59;5071677;28;20755;-69
2021/04/15 01:40:03;;;;;;;1999.90;830.60;;;;;;;0.06;64.04;102646.50;5088351;28;20676;-71
2021/04/15 01:42:35;;;;;;;278.10;92.20;;;;;;;-0.20;63.06;102598.81;5080470;28;20209;-69
2021/04/15 01:45:07;;;;;;;63.27;22.67;;;;;;;0.14;63.91;102656.22;5086697;28;20740;-70
2021/04/15 01:47:39;;;;;;;7.63;3.13;;;;;;;0.11;63.62;102644.75;5067480;28;20573;-70
2021/04/15 01:50:15;;;;;;;6.30;2.33;;;;;;;0.21;62.92;102657.13;5085126;28;20293;-70
2021/04/15 01:52:45;;;;;;;0.80;0.80;;;;;;;0.18;64.26;102652.72;5077396;28;20302;-72
2021/04/15 01:55:19;;;;;;;1.23;1.23;;;;;;;-0.11;66.22;102659.56;5085784;28;20221;-72
2021/04/15 01:57:56;;;;;;;1.10;1.00;;;;;;;-0.19;66.16;102645.44;5077216;28;20197;-72
2021/04/15 02:00:27;;;;;;;2.57;1.67;;;;;;;0.04;64.70;102658.81;5086491;28;20196;-72
2021/04/15 02:02:57;;;;;;;1.43;1.33;;;;;;;-0.11;64.53;102610.28;5116891;27;20237;-70
2021/04/15 02:05:28;;;;;;;1.43;0.87;;;;;;;0.14;64.42;102653.59;5076388;28;20263;-72
2021/04/15 02:08:03;;;;;;;0.60;0.60;;;;;;;0.21;63.50;102650.09;5086724;28;20233;-71
2021/04/15 02:10:33;;;;;;;0.73;0.60;;;;;;;0.22;63.35;102654.50;5077718;28;20280;-72
2021/04/15 02:13:05;;;;;;;0.60;0.50;;;;;;;0.24;63.49;102657.16;5070320;28;20201;-72
2021/04/15 02:15:44;;;;;;;0.40;0.40;;;;;;;0.24;63.22;102657.16;5079354;28;20198;-72
2021/04/15 02:18:16;;;;;;;0.43;0.17;;;;;;;0.21;63.08;102663.31;5074605;28;20205;-73
2021/04/15 02:20:48;;;;;;;3.27;1.67;;;;;;;0.12;63.01;102647.41;5072904;28;20217;-72
2021/04/15 02:23:22;;;;;;;0.70;0.70;;;;;;;0.18;63.23;102668.56;5087962;28;20691;-71
2021/04/15 02:25:56;;;;;;;0.20;0.20;;;;;;;0.15;62.74;102662.41;5090408;28;20222;-70
2021/04/15 02:28:28;;;;;;;1.60;0.40;;;;;;;0.12;62.92;102657.97;5090031;28;20697;-72
2021/04/15 02:31:05;;;;;;;0.30;0.30;;;;;;;0.14;63.03;102665.91;5089231;28;20206;-71
2021/04/15 02:33:39;;;;;;;0.37;0.30;;;;;;;0.10;62.94;102667.66;5085228;28;20231;-72
2021/04/15 02:36:07;;;;;;;0.30;0.30;;;;;;;0.08;62.98;102669.41;5072816;28;20217;-72
2021/04/15 02:38:44;;;;;;;0.30;0.30;;;;;;;0.03;63.08;102671.13;5080600;28;20199;-72
2021/04/15 02:41:17;;;;;;;0.70;0.50;;;;;;;-0.06;62.82;102674.56;5071222;28;20295;-72
2021/04/15 02:43:49;;;;;;;0.30;0.30;;;;;;;0.03;63.08;102676.41;5077680;28;20239;-72
2021/04/15 02:46:20;;;;;;;0.40;0.30;;;;;;;0.00;63.27;102681.69;5084304;28;20229;-72
2021/04/15 02:48:50;;;;;;;0.40;0.40;;;;;;;0.01;63.27;102686.09;5072048;28;20197;-72
2021/04/15 02:51:22;;;;;;;0.77;0.60;;;;;;;-0.08;62.96;102673.69;5070968;28;20667;-72
2021/04/15 02:53:55;;;;;;;0.77;0.77;;;;;;;0.01;63.12;102691.38;5073776;28;20626;-70
2021/04/15 02:56:26;;;;;;;1.03;0.80;;;;;;;0.01;63.63;102688.72;5091179;28;20203;-70
2021/04/15 02:58:58;;;;;;;0.80;0.80;;;;;;;-0.04;63.43;102695.69;5077170;28;20243;-70
2021/04/15 03:01:31;;;;;;;1.00;0.63;;;;;;;-0.11;64.40;102696.53;5085574;28;20658;-72
2021/04/15 03:04:00;;;;;;;1.00;0.63;;;;;;;-0.07;63.78;102703.59;5081760;28;20210;-72
2021/04/15 03:06:31;;;;;;;0.80;0.50;;;;;;;-0.09;63.70;102697.44;5075379;28;20299;-72
2021/04/15 03:09:04;;;;;;;7.53;0.73;;;;;;;-0.07;63.58;102696.56;5077239;28;20285;-73
2021/04/15 03:11:38;;;;;;;1.13;0.60;;;;;;;-0.06;63.30;102695.69;5081283;28;20255;-69
2021/04/15 03:14:09;;;;;;;0.40;0.40;;;;;;;-0.04;63.10;102704.50;5080824;28;20236;-69
2021/04/15 03:16:42;;;;;;;0.83;0.60;;;;;;;-0.05;63.39;102697.47;5075448;28;20195;-69
2021/04/15 03:19:14;;;;;;;4.93;1.10;;;;;;;-0.01;63.47;102707.16;5076058;28;20206;-69
2021/04/15 03:21:49;;;;;;;2.00;1.17;;;;;;;-0.06;63.26;102697.44;5078019;28;20194;-69
2021/04/15 03:24:22;;;;;;;3.10;1.83;;;;;;;-0.02;63.20;102701.88;5076193;28;20225;-72
2021/04/15 03:26:55;;;;;;;9.70;5.87;;;;;;;-0.06;63.11;102679.84;5091659;28;20688;-69
2021/04/15 03:29:26;;;;;;;3.50;2.63;;;;;;;0.11;63.16;102709.03;5088627;28;20211;-72
2021/04/15 03:32:11;;;;;;;3.17;1.70;;;;;;;-0.06;63.12;102671.03;5070722;28;20204;-72
2021/04/15 03:34:44;;;;;;;1.20;1.10;;;;;;;0.21;63.51;102708.22;5083866;28;20557;-73
2021/04/15 03:37:18;;;;;;;1.17;1.00;;;;;;;0.14;63.32;102692.31;5072322;28;20282;-72
2021/04/15 03:39:46;;;;;;;1.53;1.10;;;;;;;0.28;62.80;102715.28;5086976;28;20251;-69
2021/04/15 03:42:22;;;;;;;2.40;1.17;;;;;;;0.32;62.76;102718.00;5082285;28;20201;-72
2021/04/15 03:44:53;;;;;;;7.60;4.10;;;;;;;0.30;62.79;102721.47;5074971;28;20573;-69
2021/04/15 03:47:28;;;;;;;2.07;1.40;;;;;;;0.35;62.46;102728.56;5074958;28;20272;-72
2021/04/15 03:50:00;;;;;;;1.20;0.97;;;;;;;0.34;62.84;102718.88;5078475;28;20198;-69
2021/04/15 03:52:31;;;;;;;3.60;1.23;;;;;;;0.36;62.48;102725.06;5080412;28;20663;-69
2021/04/15 03:55:13;;;;;;;1.73;1.20;;;;;;;0.37;62.74;102734.75;5075606;28;20202;-69
2021/04/15 03:57:43;;;;;;;0.83;0.70;;;;;;;0.36;62.81;102736.50;5077593;28;20197;-70
2021/04/15 04:00:14;;;;;;;1.17;0.90;;;;;;;0.38;62.52;102747.97;5090585;28;20236;-69
2021/04/15 04:02:47;;;;;;;2.53;2.33;;;;;;;0.38;63.17;102740.03;5081736;28;20210;-69
2021/04/15 04:05:21;;;;;;;0.73;0.73;;;;;;;0.38;63.14;102753.25;5086755;28;20833;-70
2021/04/15 04:07:52;;;;;;;1.40;0.80;;;;;;;0.44;62.89;102749.75;5074456;28;20305;-69
2021/04/15 04:10:24;;;;;;;2.23;0.93;;;;;;;0.51;62.20;102755.09;5076880;28;20284;-68
2021/04/15 04:13:16;;;;;;;1.73;0.80;;;;;;;0.57;62.84;102751.59;5083182;28;20564;-68
2021/04/15 04:15:48;;;;;;;0.63;0.47;;;;;;;0.64;62.39;102750.78;5073475;28;20246;-68
2021/04/15 04:18:23;;;;;;;0.70;0.70;;;;;;;0.71;62.61;102751.69;5080263;28;20384;-69
2021/04/15 04:20:55;;;;;;;0.67;0.60;;;;;;;0.78;62.92;102751.72;5080964;28;20204;-73
2021/04/15 04:23:32;;;;;;;4.10;0.60;;;;;;;0.87;62.70;102757.03;5079068;28;20185;-73
2021/04/15 04:26:09;;;;;;;1.30;1.00;;;;;;;0.95;63.12;102756.22;5079401;28;20226;-73
2021/04/15 04:28:41;;;;;;;1.20;1.10;;;;;;;0.64;63.18;102687.34;5079367;28;20205;-73
2021/04/15 04:31:20;;;;;;;7.67;0.73;;;;;;;1.05;63.08;102750.06;5076582;28;20209;-73
2021/04/15 04:33:52;;;;;;;0.63;0.63;;;;;;;1.12;62.94;102758.03;5076011;28;20193;-70
2021/04/15 04:36:22;;;;;;;1.17;0.60;;;;;;;1.24;63.09;102765.16;5078223;28;20587;-68
2021/04/15 04:38:52;;;;;;;0.80;0.80;;;;;;;1.34;63.37;102755.47;5074188;28;20276;-68
2021/04/15 04:41:26;;;;;;;0.83;0.83;;;;;;;1.44;63.17;102759.91;5071690;28;20209;-68
2021/04/15 04:43:57;;;;;;;0.90;0.90;;;;;;;1.49;64.17;102759.03;5077368;28;20212;-72
2021/04/15 04:46:35;;;;;;;2.73;1.07;;;;;;;1.59;65.04;102759.06;5076703;28;20303;-73
2021/04/15 04:49:08;;;;;;;1.37;0.70;;;;;;;1.67;64.86;102757.31;5069355;28;20195;-73
2021/04/15 04:51:47;;;;;;;0.90;0.60;;;;;;;1.73;65.37;102762.59;5070708;28;20206;-73
2021/04/15 04:54:20;;;;;;;0.53;0.50;;;;;;;1.87;64.90;102766.16;5071951;28;20287;-73
2021/04/15 04:56:54;;;;;;;0.80;0.60;;;;;;;2.02;64.27;102771.47;5071641;28;20317;-73
2021/04/15 04:59:26;;;;;;;1.23;0.73;;;;;;;2.14;64.84;102771.47;5067470;28;20677;-68
2021/04/15 05:01:54;;;;;;;1.40;0.70;;;;;;;2.25;65.31;102773.22;5073206;28;20199;-69
2021/04/15 05:04:26;;;;;;;1.70;0.73;;;;;;;2.39;64.54;102782.03;5075139;28;20199;-68
2021/04/15 05:07:01;;;;;;;2.43;0.70;;;;;;;2.56;64.69;102779.38;5078678;28;20473;-69
2021/04/15 05:09:33;;;;;;;0.83;0.60;;;;;;;2.69;64.52;102781.13;5074754;28;20321;-68
2021/04/15 05:12:05;;;;;;;0.87;0.57;;;;;;;2.86;64.16;102783.75;5082350;28;20204;-72
2021/04/15 05:14:36;;;;;;;1.73;0.97;;;;;;;2.96;62.86;102782.81;5077601;28;20337;-68
2021/04/15 05:17:13;;;;;;;1.00;0.90;;;;;;;3.13;63.04;102783.66;5080488;28;20564;-69
2021/04/15 05:19:41;;;;;;;0.73;0.50;;;;;;;3.26;62.72;102787.13;5073111;28;20270;-68
2021/04/15 05:22:19;;;;;;;1.03;0.80;;;;;;;3.21;61.54;102749.09;5078197;28;20258;-69
2021/04/15 05:24:50;;;;;;;0.77;0.77;;;;;;;3.61;61.78;102792.25;5081436;28;20605;-68
2021/04/15 05:27:20;;;;;;;2.77;0.50;;;;;;;3.74;60.15;102789.53;5080704;28;20307;-68
2021/04/15 05:29:51;;;;;;;0.40;0.30;;;;;;;3.62;60.01;102746.19;5075249;28;20283;-68
2021/04/15 05:32:19;;;;;;;0.83;0.70;;;;;;;4.05;60.95;102790.19;5073131;28;20283;-68
2021/04/15 05:34:51;;;;;;;0.50;0.50;;;;;;;4.17;58.92;102788.31;5073832;28;20192;-68
2021/04/15 05:37:22;;;;;;;0.97;0.60;;;;;;;4.33;58.19;102790.84;5069782;28;20214;-68
2021/04/15 05:39:51;;;;;;;0.60;0.50;;;;;;;4.13;57.82;102744.91;5078275;28;20205;-68
2021/04/15 05:42:26;;;;;;;6.70;0.67;;;;;;;4.61;58.54;102799.44;5078083;28;20204;-69
2021/04/15 05:45:00;;;;;;;0.70;0.70;;;;;;;4.78;57.86;102799.25;5083451;28;20205;-68
2021/04/15 05:47:31;;;;;;;90.90;41.47;;;;;;;4.96;57.25;102806.19;5075119;28;20622;-68
2021/04/15 05:50:05;;;;;;;1.00;0.60;;;;;;;5.05;57.36;102797.19;5077307;28;20735;-68
2021/04/15 05:52:37;;;;;;;0.63;0.63;;;;;;;5.23;56.71;102807.66;5078898;28;20200;-68
2021/04/15 05:55:09;;;;;;;0.50;0.50;;;;;;;5.48;58.54;102809.06;5074997;28;20205;-68
2021/04/15 05:57:40;;;;;;;6.50;0.63;;;;;;;5.65;57.02;102803.53;5073017;28;20270;-73
2021/04/15 06:00:12;;;;;;;6.40;0.80;;;;;;;5.89;56.64;102810.28;5082752;28;20263;-69
2021/04/15 06:02:53;;;;;;;0.50;0.50;;;;;;;5.94;54.95;102803.13;5084470;28;20191;-68
2021/04/15 06:05:26;;;;;;;1.03;0.67;;;;;;;6.04;54.36;102810.06;5081682;28;20568;-68
2021/04/15 06:07:56;;;;;;;0.80;0.43;;;;;;;5.91;54.43;102773.84;5083917;28;20288;-69
2021/04/15 06:10:28;;;;;;;1.20;0.70;;;;;;;6.28;54.32;102814.13;5073535;28;20262;-69
2021/04/15 06:13:02;;;;;;;0.80;0.53;;;;;;;6.45;53.23;102813.88;5080544;28;20387;-68
2021/04/15 06:15:34;;;;;;;0.40;0.40;;;;;;;6.65;53.26;102814.38;5078973;28;20201;-72
2021/04/15 06:18:09;;;;;;;0.30;0.30;;;;;;;6.67;52.84;102819.69;5072603;28;20541;-68
2021/04/15 06:20:42;;;;;;;0.40;0.40;;;;;;;6.78;51.95;102828.41;5076617;28;20275;-72
2021/04/15 06:23:17;;;;;;;0.40;0.40;;;;;;;6.66;52.58;102772.53;5077054;28;20190;-68
2021/04/15 06:25:47;;;;;;;0.47;0.47;;;;;;;6.94;52.15;102821.84;5075008;28;20233;-69
2021/04/15 06:28:25;;;;;;;0.23;0.23;;;;;;;7.02;51.37;102829.72;5081573;28;20202;-68
2021/04/15 06:31:23;;;;;;;1.43;0.70;;;;;;;7.14;50.10;102829.50;5083805;28;20594;-68
2021/04/15 06:33:54;;;;;;;0.73;0.73;;;;;;;6.86;50.75;102789.09;5091366;28;20443;-68
2021/04/15 06:36:30;;;;;;;0.40;0.40;;;;;;;6.92;49.85;102785.41;5089386;28;20668;-68
2021/04/15 06:39:06;;;;;;;0.50;0.47;;;;;;;7.47;50.84;102835.94;5073042;28;20209;-69
2021/04/15 06:42:03;;;;;;;0.40;0.40;;;;;;;7.52;50.00;102804.63;5077233;28;20224;-68
2021/04/15 06:45:09;;;;;;;0.50;0.50;;;;;;;7.71;49.68;102827.41;5076439;28;20928;-69
2021/04/15 06:47:52;;;;;;;0.40;0.40;;;;;;;7.69;49.13;102831.91;5085063;28;20345;-69
2021/04/15 06:50:30;;;;;;;0.47;0.40;;;;;;;7.90;48.31;102826.97;5071447;28;20729;-69
2021/04/15 06:53:13;;;;;;;0.50;0.50;;;;;;;7.81;48.12;102830.72;5078221;28;20197;-68
2021/04/15 06:55:52;;;;;;;0.43;0.43;;;;;;;7.71;47.74;102840.75;5092297;27;20306;-69
2021/04/15 06:58:42;;;;;;;0.33;0.30;;;;;;;7.71;46.82;102838.09;5078831;28;20271;-69
2021/04/15 07:01:24;;;;;;;0.47;0.47;;;;;;;7.77;47.28;102837.94;5071369;28;20279;-69
2021/04/15 07:04:03;;;;;;;0.93;0.33;;;;;;;7.60;47.74;102845.44;5091770;28;20209;-69
2021/04/15 07:06:45;;;;;;;1.23;0.57;;;;;;;7.78;47.99;102847.72;5084626;28;20245;-69
2021/04/15 07:10:05;;;;;;;1.20;0.53;;;;;;;7.97;48.38;102839.31;5079157;28;20273;-69
2021/04/15 07:13:06;;;;;;;0.43;0.43;;;;;;;8.19;48.26;102839.66;5073370;28;20206;-69
2021/04/15 07:15:49;;;;;;;0.60;0.40;;;;;;;8.25;47.22;102847.53;5067902;28;20298;-68
2021/04/15 07:18:51;;;;;;;4.23;0.67;;;;;;;8.32;47.02;102843.81;5076264;28;20229;-68
2021/04/15 07:21:50;;;;;;;1.00;0.57;;;;;;;8.56;47.56;102855.72;5082612;28;20266;-69
2021/04/15 07:24:37;;;;;;;0.50;0.50;;;;;;;8.52;46.13;102848.69;5080921;28;20237;-68
2021/04/15 07:27:39;;;;;;;0.50;0.50;;;;;;;8.76;47.98;102855.22;5089249;28;20238;-68
2021/04/15 07:30:29;;;;;;;1.40;0.47;;;;;;;8.87;46.05;102851.31;5089342;28;20633;-69
2021/04/15 07:33:27;;;;;;;0.80;0.70;;;;;;;8.93;46.98;102861.03;5075339;28;20204;-69
2021/04/15 07:36:35;;;;;;;1.70;0.40;;;;;;;9.00;46.53;102852.78;5089098;28;20219;-68
2021/04/15 07:39:21;;;;;;;0.90;0.50;;;;;;;9.11;46.78;102854.25;5078878;28;20322;-68
2021/04/15 07:42:08;;;;;;;6.67;0.70;;;;;;;9.51;46.30;102854.91;5088828;28;20559;-68
2021/04/15 07:44:38;;;;;;;0.30;0.30;;;;;;;9.48;45.72;102864.81;5088123;28;20199;-68
2021/04/15 07:47:26;;;;;;;0.50;0.50;;;;;;;9.30;45.65;102860.88;5076756;28;20249;-69
2021/04/15 07:50:30;;;;;;;0.40;0.40;;;;;;;9.78;45.85;102850.50;5086731;28;20253;-68
2021/04/15 07:53:26;;;;;;;0.57;0.50;;;;;;;10.06;45.78;102857.69;5085373;28;20201;-69
2021/04/15 07:56:31;;;;;;;0.40;0.40;;;;;;;10.31;45.07;102860.53;5075441;28;20204;-68
2021/04/15 07:59:19;;;;;;;0.47;0.40;;;;;;;10.37;44.37;102858.50;5076717;28;20289;-68
2021/04/15 08:02:15;;;;;;;1.33;0.40;;;;;;;10.33;45.16;102850.59;5081896;28;20291;-73
2021/04/15 08:05:08;;;;;;;0.70;0.50;;;;;;;9.69;43.77;102847.22;5073859;28;20307;-73
2021/04/15 08:07:48;;;;;;;0.30;0.30;;;;;;;9.73;44.55;102859.63;5082416;28;20236;-72
2021/04/15 08:10:32;;;;;;;4.80;0.70;;;;;;;9.64;43.72;102858.97;5080502;28;20717;-73
2021/04/15 08:13:25;;;;;;;0.57;0.57;;;;;;;9.78;44.60;102876.47;5069679;28;20302;-73
2021/04/15 08:16:15;;;;;;;0.30;0.30;;;;;;;9.99;43.95;102867.75;5081621;28;20215;-68
2021/04/15 08:18:49;;;;;;;0.40;0.40;;;;;;;10.05;44.14;102864.88;5077284;28;20555;-68
2021/04/15 08:21:32;;;;;;;0.50;0.50;;;;;;;9.75;42.92;102879.22;5086653;28;20282;-68
2021/04/15 08:24:31;;;;;;;0.50;0.50;;;;;;;9.62;43.40;102876.03;5075060;28;20310;-68
2021/04/15 08:27:36;;;;;;;0.60;0.60;;;;;;;9.61;43.16;102883.22;5068771;28;20592;-68
2021/04/15 08:30:32;;;;;;;0.77;0.47;;;;;;;9.47;43.21;102880.03;5069236;28;20267;-69
2021/04/15 08:33:13;;;;;;;1.70;0.43;;;;;;;9.43;43.95;102878.38;5082334;28;20648;-72
2021/04/15 08:36:02;;;;;;;0.33;0.33;;;;;;;9.58;45.86;102877.06;5111970;27;20288;-72
2021/04/15 08:38:44;;;;;;;0.40;0.40;;;;;;;9.42;44.19;102828.34;5068631;28;20194;-71
2021/04/15 08:41:24;;;;;;;2.13;0.40;;;;;;;9.68;43.58;102875.84;5087260;28;20227;-71
2021/04/15 08:44:18;;;;;;;1.00;0.30;;;;;;;9.87;44.60;102869.03;5077282;28;20579;-72
2021/04/15 08:46:55;;;;;;;0.67;0.53;;;;;;;10.05;43.42;102883.66;5068797;28;20223;-73
2021/04/15 08:49:34;;;;;;;0.43;0.30;;;;;;;9.93;43.75;102873.31;5080897;28;20195;-72
2021/04/15 08:52:17;;;;;;;0.70;0.70;;;;;;;9.74;43.13;102891.78;5082118;28;20258;-68
2021/04/15 08:55:02;;;;;;;0.43;0.43;;;;;;;9.56;43.54;102884.28;5068313;28;20261;-68
2021/04/15 08:57:41;;;;;;;0.63;0.40;;;;;;;9.61;43.52;102880.53;5075493;28;20193;-68
2021/04/15 09:00:22;;;;;;;0.30;0.30;;;;;;;9.54;42.59;102889.69;5087435;28;20287;-67
2021/04/15 09:02:59;;;;;;;0.30;0.30;;;;;;;9.54;44.06;102880.75;5071998;28;20568;-68
2021/04/15 09:05:32;;;;;;;1.40;0.57;;;;;;;9.69;44.04;102882.09;5078000;28;20228;-68
2021/04/15 09:08:10;;;;;;;0.40;0.40;;;;;;;9.84;43.47;102877.19;5082798;28;20288;-68
2021/04/15 09:10:52;;;;;;;1.60;0.60;;;;;;;9.89;43.21;102874.34;5086443;28;20600;-68
2021/04/15 09:13:38;;;;;;;0.77;0.77;;;;;;;10.19;43.92;102869.81;5080890;28;20288;-68
2021/04/15 09:16:18;;;;;;;0.43;0.40;;;;;;;9.83;42.90;102882.59;5078437;28;20673;-68
2021/04/15 09:18:56;;;;;;;0.33;0.33;;;;;;;10.19;44.77;102865.34;5088041;28;20610;-67
2021/04/15 09:21:35;;;;;;;0.67;0.40;;;;;;;10.31;43.04;102882.00;5080233;28;20196;-71
2021/04/15 09:24:15;;;;;;;1.80;0.70;;;;;;;10.13;43.87;102872.72;5081004;28;20560;-72
2021/04/15 09:27:07;;;;;;;0.53;0.53;;;;;;;9.39;42.30;102822.19;5080395;28;20243;-72
2021/04/15 09:29:38;;;;;;;2.00;0.50;;;;;;;9.54;43.55;102864.66;5084596;28;20259;-72
2021/04/15 09:32:12;;;;;;;0.40;0.40;;;;;;;9.79;44.46;102870.16;5087097;28;20291;-68
2021/04/15 09:35:12;;;;;;;1.33;0.50;;;;;;;9.82;43.35;102859.38;5073954;28;20203;-67
2021/04/15 09:38:15;;;;;;;0.60;0.50;;;;;;;9.90;42.79;102852.81;5041383;28;20197;-68
2021/04/15 09:41:03;;;;;;;0.53;0.53;;;;;;;9.96;44.00;102847.25;5071949;28;20204;-73
2021/04/15 09:43:57;;;;;;;0.33;0.33;;;;;;;10.14;42.43;102850.31;5085659;28;20262;-72
2021/04/15 09:46:33;;;;;;;0.47;0.47;;;;;;;10.24;42.00;102852.66;5072794;28;20269;-68
2021/04/15 09:49:16;;;;;;;0.43;0.43;;;;;;;10.16;43.02;102846.66;5083191;28;20224;-68
2021/04/15 09:52:05;;;;;;;0.30;0.30;;;;;;;10.55;43.45;102857.03;5089221;28;20296;-72
2021/04/15 09:54:41;;;;;;;0.70;0.50;;;;;;;10.38;40.69;102854.88;5079117;28;20213;-72
2021/04/15 09:57:26;;;;;;;0.30;0.30;;;;;;;10.25;41.67;102849.06;5071844;28;20734;-68
2021/04/15 10:00:11;;;;;;;0.30;0.30;;;;;;;10.18;41.02;102858.22;5084036;28;20224;-72
2021/04/15 10:02:49;;;;;;;0.40;0.40;;;;;;;10.37;42.54;102860.31;5069437;28;20307;-73
2021/04/15 10:05:34;;;;;;;0.50;0.50;;;;;;;10.56;42.27;102848.03;5084007;28;20208;-72
2021/04/15 10:08:10;;;;;;;0.60;0.50;;;;;;;10.77;41.29;102850.00;5087304;28;20281;-72
2021/04/15 10:10:47;;;;;;;0.67;0.40;;;;;;;10.98;40.99;102853.72;5085318;28;20477;-67
2021/04/15 10:13:27;;;;;;;0.73;0.40;;;;;;;10.78;39.64;102834.75;5079947;28;20247;-68
2021/04/15 10:16:06;;;;;;;0.43;0.43;;;;;;;11.14;40.46;102840.63;5088040;28;20583;-68
2021/04/15 10:19:03;;;;;;;0.30;0.30;;;;;;;11.40;40.29;102845.94;5090844;28;20689;-68
2021/04/15 10:21:55;;;;;;;5.23;0.60;;;;;;;11.07;38.09;102849.84;5077117;28;20218;-68
2021/04/15 10:24:34;;;;;;;0.50;0.50;;;;;;;11.12;38.66;102848.75;5076554;28;20282;-68
2021/04/15 10:27:44;;;;;;;1.43;0.70;;;;;;;11.16;38.18;102844.13;5090807;28;20246;-68
2021/04/15 10:30:49;;;;;;;0.20;0.20;;;;;;;11.21;39.66;102844.84;5083273;28;20229;-68
2021/04/15 10:33:48;;;;;;;0.40;0.40;;;;;;;11.22;39.34;102843.03;5084704;28;20273;-72
2021/04/15 10:36:36;;;;;;;0.23;0.23;;;;;;;10.78;37.86;102805.19;5072548;28;20294;-72
2021/04/15 10:39:21;;;;;;;0.30;0.30;;;;;;;10.63;38.93;102844.22;5090802;28;20739;-68
2021/04/15 10:42:25;;;;;;;1.23;0.50;;;;;;;10.66;38.98;102837.84;5085055;28;20197;-72
2021/04/15 10:45:20;;;;;;;1.10;0.63;;;;;;;10.82;39.89;102833.72;5082684;28;20553;-68
2021/04/15 10:48:18;;;;;;;0.40;0.40;;;;;;;10.89;39.07;102846.88;5071001;28;20243;-69
2021/04/15 10:50:52;;;;;;;0.37;0.37;;;;;;;11.28;39.28;102843.69;5069893;28;20221;-68
2021/04/15 10:53:51;;;;;;;0.97;0.57;;;;;;;11.01;36.17;102839.28;5072357;28;20190;-72
2021/04/15 10:56:34;;;;;;;0.37;0.23;;;;;;;10.89;36.32;102843.31;5027738;28;20204;-72
2021/04/15 10:59:13;;;;;;;0.20;0.20;;;;;;;10.80;37.75;102838.25;5063744;28;20325;-72
2021/04/15 11:01:50;;;;;;;0.37;0.37;;;;;;;10.73;36.93;102818.78;5079943;28;20739;-72
2021/04/15 11:04:30;;;;;;;0.47;0.47;;;;;;;10.74;37.24;102825.94;5079207;28;20597;-72
2021/04/15 11:07:05;;;;;;;0.53;0.27;;;;;;;10.80;37.08;102836.47;5076159;28;20625;-68
2021/04/15 11:09:37;;;;;;;0.40;0.40;;;;;;;10.90;36.82;102823.56;5078410;28;20562;-67
2021/04/15 11:12:17;;;;;;;0.77;0.33;;;;;;;10.74;36.02;102827.72;5076949;28;20585;-72
2021/04/15 11:15:10;;;;;;;0.93;0.50;;;;;;;10.66;36.20;102827.97;5078041;28;20219;-72
2021/04/15 11:17:42;;;;;;;0.47;0.47;;;;;;;10.87;36.00;102818.28;5069828;28;20248;-72
2021/04/15 11:20:21;;;;;;;0.67;0.67;;;;;;;11.21;36.45;102826.00;5079301;28;20595;-72
2021/04/15 11:22:58;;;;;;;1.30;0.50;;;;;;;11.17;35.81;102819.00;5070078;28;20193;-67
2021/04/15 11:25:28;;;;;;;1.73;0.33;;;;;;;11.26;36.68;102807.88;5081324;28;20200;-67
2021/04/15 11:27:57;;;;;;;0.53;0.53;;;;;;;11.20;33.87;102825.13;5085006;28;20232;-67
2021/04/15 11:30:40;;;;;;;0.43;0.40;;;;;;;10.80;34.65;102822.13;5078214;28;20203;-73
2021/04/15 11:33:35;;;;;;;0.30;0.30;;;;;;;11.25;35.41;102826.78;5069321;28;20196;-72
2021/04/15 11:36:06;;;;;;;0.40;0.40;;;;;;;11.38;35.25;102818.22;5088341;28;20206;-68
2021/04/15 11:38:35;;;;;;;0.93;0.50;;;;;;;11.41;35.40;102812.72;5069778;28;20207;-68
2021/04/15 11:41:13;;;;;;;0.30;0.30;;;;;;;11.22;35.80;102816.13;5083619;28;20294;-68
2021/04/15 11:43:41;;;;;;;0.67;0.50;;;;;;;11.19;34.97;102815.31;5076823;28;20414;-72
2021/04/15 11:46:15;;;;;;;2.33;0.70;;;;;;;11.06;35.70;102814.03;5076701;28;20197;-68
2021/04/15 11:48:44;;;;;;;1.03;0.60;;;;;;;11.07;34.57;102823.84;5069821;28;20287;-68
2021/04/15 11:51:16;;;;;;;0.33;0.33;;;;;;;11.15;35.80;102811.00;5082535;28;20610;-72
2021/04/15 11:53:53;;;;;;;0.67;0.40;;;;;;;11.36;35.41;102817.38;5089504;28;20699;-72
2021/04/15 11:56:28;;;;;;;2.47;0.60;;;;;;;11.11;34.72;102770.81;5089554;28;20205;-73
2021/04/15 11:59:15;;;;;;;1.00;0.73;;;;;;;11.23;34.60;102823.28;5089963;28;20579;-73
2021/04/15 12:01:42;;;;;;;0.70;0.67;;;;;;;11.29;35.10;102823.91;5073586;28;20250;-73
2021/04/15 12:04:15;;;;;;;0.70;0.70;;;;;;;11.40;35.94;102799.31;5080135;28;20201;-72
2021/04/15 12:06:48;;;;;;;0.53;0.53;;;;;;;11.50;36.22;102812.34;5088431;28;20220;-72
2021/04/15 12:09:22;;;;;;;0.60;0.43;;;;;;;11.67;36.22;102822.47;5086838;28;20228;-72
2021/04/15 12:11:59;;;;;;;1.30;0.50;;;;;;;11.51;36.44;102811.41;5083775;28;20414;-72
2021/04/15 12:14:27;;;;;;;3.13;0.73;;;;;;;11.85;36.89;102801.16;5069001;28;20206;-72
2021/04/15 12:17:00;;;;;;;0.57;0.57;;;;;;;11.78;36.47;102800.53;5088010;28;20774;-72
2021/04/15 12:19:37;;;;;;;1.00;0.73;;;;;;;11.74;35.56;102802.44;5073414;28;20200;-72
2021/04/15 12:22:14;;;;;;;0.87;0.87;;;;;;;11.96;37.26;102796.25;5089880;28;20614;-72